createdAt,value
2018-12-11T00:00:50.540Z,17.97
2018-12-11T00:03:18.402Z,11.33
2018-12-11T00:05:45.860Z,28.43
2018-12-11T00:08:13.454Z,13.57
2018-12-11T00:10:40.916Z,21.30
2018-12-11T00:13:08.381Z,13.13
2018-12-11T00:15:35.829Z,18.93
2018-12-11T00:18:03.397Z,14.70
2018-12-11T00:20:30.879Z,14.20
2018-12-11T00:22:58.923Z,19.07
2018-12-11T00:25:26.394Z,15.97
2018-12-11T00:27:53.881Z,15.17
2018-12-11T00:30:21.350Z,20.60
2018-12-11T00:32:48.807Z,17.17
2018-12-11T00:35:16.264Z,23.27
2018-12-11T00:37:44.725Z,22.93
2018-12-11T00:40:12.244Z,15.63
2018-12-11T00:42:39.713Z,20.87
2018-12-11T00:45:07.263Z,23.57
2018-12-11T00:47:34.727Z,21.30
2018-12-11T00:50:02.276Z,24.03
2018-12-11T00:52:30.544Z,28.43
2018-12-11T00:54:58.011Z,15.00
2018-12-11T00:57:25.612Z,19.10
2018-12-11T00:59:53.262Z,16.40
2018-12-11T01:02:20.727Z,13.57
2018-12-11T01:04:48.217Z,19.00
2018-12-11T01:07:16.056Z,17.37
2018-12-11T01:09:43.551Z,20.80
2018-12-11T01:12:11.037Z,18.87
2018-12-11T01:14:38.514Z,23.63
2018-12-11T01:17:05.977Z,20.17
2018-12-11T01:19:33.776Z,15.43
2018-12-11T01:22:02.837Z,11.83
2018-12-11T01:24:30.354Z,21.60
2018-12-11T01:26:58.290Z,15.27
2018-12-11T01:29:25.736Z,16.87
2018-12-11T01:31:53.192Z,21.40
2018-12-11T01:34:20.649Z,26.17
2018-12-11T01:36:48.105Z,18.20
2018-12-11T01:39:15.672Z,21.50
2018-12-11T01:41:43.203Z,17.33
2018-12-11T01:44:10.679Z,19.53
2018-12-11T01:46:38.470Z,16.10
2018-12-11T01:49:06.143Z,18.83
2018-12-11T01:51:33.613Z,19.57
2018-12-11T01:54:01.088Z,13.30
2018-12-11T01:56:29.124Z,15.40
2018-12-11T01:58:57.218Z,16.83
2018-12-11T02:01:25.571Z,12.37
2018-12-11T02:03:53.042Z,14.20
2018-12-11T02:06:20.516Z,16.30
2018-12-11T02:08:47.953Z,14.00
2018-12-11T02:11:15.453Z,14.87
2018-12-11T02:13:42.920Z,14.47
2018-12-11T02:16:10.445Z,26.77
2018-12-11T02:18:37.898Z,17.33
2018-12-11T02:21:05.845Z,21.67
2018-12-11T02:23:36.345Z,18.93
2018-12-11T02:26:07.636Z,19.13
2018-12-11T02:28:37.970Z,15.37
2018-12-11T02:31:05.947Z,22.37
2018-12-11T02:33:33.451Z,17.40
2018-12-11T02:36:00.934Z,14.67
2018-12-11T02:38:28.388Z,13.90
2018-12-11T02:40:55.866Z,13.30
2018-12-11T02:43:23.329Z,17.93
2018-12-11T02:45:50.795Z,11.70
2018-12-11T02:48:18.920Z,23.60
2018-12-11T02:50:46.371Z,15.50
2018-12-11T02:53:13.987Z,16.50
2018-12-11T02:55:41.428Z,16.83
2018-12-11T02:58:08.888Z,20.50
2018-12-11T03:00:36.385Z,14.20
2018-12-11T03:03:03.900Z,19.50
2018-12-11T03:05:31.387Z,22.10
2018-12-11T03:07:58.841Z,14.73
2018-12-11T03:10:26.320Z,13.70
2018-12-11T03:12:53.823Z,18.07
2018-12-11T03:15:21.292Z,13.93
2018-12-11T03:17:49.437Z,16.83
2018-12-11T03:20:16.974Z,16.67
2018-12-11T03:22:44.525Z,12.10
2018-12-11T03:25:12.148Z,16.10
2018-12-11T03:27:39.590Z,20.07
2018-12-11T03:30:07.153Z,17.10
2018-12-11T03:32:34.659Z,17.47
2018-12-11T03:35:03.049Z,21.17
2018-12-11T03:37:30.520Z,20.33
2018-12-11T03:39:58.001Z,22.10
2018-12-11T03:42:25.445Z,22.00
2018-12-11T03:44:52.885Z,20.63
2018-12-11T03:47:20.407Z,16.90
2018-12-11T03:49:47.879Z,24.10
2018-12-11T03:52:21.074Z,17.70
2018-12-11T03:54:45.258Z,20.37
2018-12-11T03:57:12.725Z,24.57
2018-12-11T03:59:40.194Z,23.00
2018-12-11T04:02:07.731Z,24.10
2018-12-11T04:04:35.187Z,25.77
2018-12-11T04:07:02.686Z,19.77
2018-12-11T04:09:30.137Z,21.63
2018-12-11T04:11:57.606Z,28.90
2018-12-11T04:14:25.623Z,29.17
2018-12-11T04:16:53.092Z,25.83
2018-12-11T04:19:21.797Z,24.27
2018-12-11T04:21:49.864Z,27.77
2018-12-11T04:24:17.312Z,26.83
2018-12-11T04:26:44.791Z,16.67
2018-12-11T04:29:12.441Z,21.00
2018-12-11T04:31:40.531Z,13.93
2018-12-11T04:34:07.994Z,28.17
2018-12-11T04:36:35.466Z,30.37
2018-12-11T04:39:03.875Z,21.97
2018-12-11T04:41:31.337Z,15.37
2018-12-11T04:43:58.825Z,20.97
2018-12-11T04:46:26.276Z,16.00
2018-12-11T04:48:53.746Z,28.57
2018-12-11T04:51:21.209Z,20.60
2018-12-11T04:53:48.664Z,18.30
2018-12-11T04:56:16.159Z,22.33
2018-12-11T04:58:43.710Z,21.83
2018-12-11T05:01:11.205Z,18.93
2018-12-11T05:03:38.654Z,25.37
2018-12-11T05:06:06.128Z,24.10
2018-12-11T05:08:33.583Z,11.30
2018-12-11T05:11:01.972Z,27.00
2018-12-11T05:13:29.563Z,21.77
2018-12-11T05:15:57.023Z,18.43
2018-12-11T05:18:24.545Z,20.83
2018-12-11T05:20:52.063Z,24.37
2018-12-11T05:23:19.577Z,10.17
2018-12-11T05:25:47.886Z,15.63
2018-12-11T05:28:15.375Z,33.13
2018-12-11T05:30:43.432Z,16.50
2018-12-11T05:33:11.513Z,17.33
2018-12-11T05:35:39.002Z,18.20
2018-12-11T05:38:06.465Z,20.87
2018-12-11T05:40:34.294Z,25.93
2018-12-11T05:43:01.824Z,21.13
2018-12-11T05:45:29.738Z,18.67
2018-12-11T05:47:57.247Z,20.17
2018-12-11T05:50:24.751Z,19.43
2018-12-11T05:52:52.216Z,15.00
2018-12-11T05:55:19.681Z,21.80
2018-12-11T05:57:47.219Z,14.70
2018-12-11T06:00:14.825Z,18.53
2018-12-11T06:02:42.271Z,16.27
2018-12-11T06:05:09.860Z,20.30
2018-12-11T06:07:37.305Z,17.00
2018-12-11T06:10:06.045Z,22.50
2018-12-11T06:12:33.542Z,17.93
2018-12-11T06:15:01.008Z,23.57
2018-12-11T06:17:28.463Z,14.97
2018-12-11T06:19:56.584Z,19.67
2018-12-11T06:22:24.078Z,18.50
2018-12-11T06:24:51.576Z,17.43
2018-12-11T06:27:19.206Z,15.70
2018-12-11T06:29:46.680Z,18.70
2018-12-11T06:32:14.196Z,16.20
2018-12-11T06:34:41.644Z,10.60
2018-12-11T06:37:09.170Z,18.00
2018-12-11T06:39:37.383Z,14.37
2018-12-11T06:42:04.872Z,16.83
2018-12-11T06:44:32.334Z,15.97
2018-12-11T06:46:59.794Z,16.60
2018-12-11T06:49:27.266Z,8.27
2018-12-11T06:51:54.739Z,10.70
2018-12-11T06:54:22.217Z,17.17
2018-12-11T06:56:49.684Z,12.13
2018-12-11T06:59:17.133Z,21.70
2018-12-11T07:01:44.812Z,15.10
2018-12-11T07:04:12.272Z,15.60
2018-12-11T07:06:39.747Z,14.43
2018-12-11T07:09:07.276Z,15.17
2018-12-11T07:11:34.744Z,13.93
2018-12-11T07:14:02.896Z,18.77
2018-12-11T07:16:30.369Z,13.63
2018-12-11T07:18:57.852Z,16.43
2018-12-11T07:21:25.371Z,16.03
2018-12-11T07:23:52.860Z,10.00
2018-12-11T07:26:20.357Z,13.60
2018-12-11T07:28:47.813Z,10.70
2018-12-11T07:31:15.287Z,18.37
2018-12-11T07:33:42.780Z,15.40
2018-12-11T07:36:10.305Z,15.00
2018-12-11T07:38:37.790Z,16.63
2018-12-11T07:41:05.560Z,12.27
2018-12-11T07:43:33.047Z,20.33
2018-12-11T07:46:00.517Z,19.60
2018-12-11T07:48:27.993Z,12.93
2018-12-11T07:50:55.456Z,10.57
2018-12-11T07:53:22.907Z,12.77
2018-12-11T07:55:50.378Z,12.30
2018-12-11T07:58:17.839Z,12.27
2018-12-11T08:00:45.366Z,9.63
2018-12-11T08:03:12.832Z,14.40
2018-12-11T08:05:40.307Z,13.10
2018-12-11T08:08:09.759Z,12.30
2018-12-11T08:10:37.210Z,8.63
2018-12-11T08:13:04.867Z,13.00
2018-12-11T08:15:32.350Z,18.43
2018-12-11T08:17:59.820Z,14.07
2018-12-11T08:20:27.268Z,24.27
2018-12-11T08:22:54.729Z,15.43
2018-12-11T08:25:22.187Z,14.00
2018-12-11T08:27:49.643Z,14.77
2018-12-11T08:30:17.445Z,20.43
2018-12-11T08:32:44.910Z,21.00
2018-12-11T08:35:12.444Z,15.57
2018-12-11T08:37:40.014Z,14.50
2018-12-11T08:40:07.565Z,16.73
2018-12-11T08:42:35.060Z,14.80
2018-12-11T08:45:02.523Z,21.27
2018-12-11T08:47:29.979Z,13.40
2018-12-11T08:49:57.451Z,21.03
2018-12-11T08:52:24.982Z,11.17
2018-12-11T08:54:52.467Z,23.33
2018-12-11T08:57:19.992Z,17.83
2018-12-11T08:59:47.433Z,17.17
2018-12-11T09:02:14.952Z,12.43
2018-12-11T09:04:42.504Z,18.47
2018-12-11T09:07:09.954Z,15.03
2018-12-11T09:09:37.424Z,12.67
2018-12-11T09:12:05.007Z,39.27
2018-12-11T09:14:32.587Z,16.00
2018-12-11T09:17:00.031Z,23.07
2018-12-11T09:19:27.502Z,27.47
2018-12-11T09:21:55.018Z,20.57
2018-12-11T09:24:22.475Z,15.03
2018-12-11T09:26:49.954Z,17.43
2018-12-11T09:29:17.437Z,18.13
2018-12-11T09:31:44.909Z,15.43
2018-12-11T09:34:12.423Z,17.87
2018-12-11T09:36:39.887Z,19.07
2018-12-11T09:39:07.501Z,16.13
2018-12-11T09:41:35.003Z,17.07
2018-12-11T09:44:02.497Z,19.77
2018-12-11T09:46:29.957Z,16.87
2018-12-11T09:48:57.423Z,14.60
2018-12-11T09:51:24.876Z,21.23
2018-12-11T09:53:52.339Z,16.53
2018-12-11T09:56:20.461Z,19.87
2018-12-11T09:58:48.947Z,13.20
2018-12-11T10:01:16.389Z,19.33
2018-12-11T10:03:43.849Z,17.37
2018-12-11T10:06:11.341Z,13.13
2018-12-11T10:08:38.839Z,17.27
2018-12-11T10:11:06.869Z,16.67
2018-12-11T10:13:34.643Z,16.40
2018-12-11T10:16:02.095Z,15.67
2018-12-11T10:18:29.527Z,17.00
2018-12-11T10:20:57.060Z,10.53
2018-12-11T10:23:31.708Z,14.87
2018-12-11T10:25:54.721Z,12.27
2018-12-11T10:28:22.149Z,16.50
2018-12-11T10:30:49.611Z,15.23
2018-12-11T10:33:17.129Z,22.90
2018-12-11T10:35:44.596Z,16.47
2018-12-11T10:38:12.107Z,13.47
2018-12-11T10:40:39.574Z,21.77
2018-12-11T10:43:07.104Z,15.00
2018-12-11T10:45:34.569Z,12.60
2018-12-11T10:48:02.051Z,17.23
2018-12-11T10:50:29.572Z,11.70
2018-12-11T10:52:57.080Z,22.90
2018-12-11T10:55:24.606Z,10.67
2018-12-11T10:57:52.095Z,12.07
2018-12-11T11:00:25.115Z,13.20
2018-12-11T11:02:58.207Z,14.60
2018-12-11T11:05:25.812Z,24.20
2018-12-11T11:07:53.336Z,13.10
2018-12-11T11:10:20.819Z,14.93
2018-12-11T11:12:48.311Z,12.27
2018-12-11T11:15:15.796Z,18.67
2018-12-11T11:17:43.257Z,11.07
2018-12-11T11:20:10.867Z,19.90
2018-12-11T11:22:38.363Z,16.40
2018-12-11T11:25:08.266Z,13.97
2018-12-11T11:27:35.852Z,13.43
2018-12-11T11:30:04.753Z,17.60
2018-12-11T11:32:32.243Z,15.70
2018-12-11T11:34:59.850Z,14.23
2018-12-11T11:37:27.319Z,13.03
2018-12-11T11:39:54.834Z,13.27
2018-12-11T11:42:22.709Z,16.83
2018-12-11T11:44:50.947Z,14.20
2018-12-11T11:47:18.505Z,16.93
2018-12-11T11:49:45.984Z,13.00
2018-12-11T11:52:13.540Z,12.17
2018-12-11T11:54:41.014Z,18.30
2018-12-11T11:57:08.477Z,17.47
2018-12-11T11:59:35.957Z,14.27
2018-12-11T12:02:04.145Z,12.43
2018-12-11T12:04:31.676Z,11.77
2018-12-11T12:06:59.205Z,20.13
2018-12-11T12:09:26.680Z,12.40
2018-12-11T12:11:54.113Z,9.80
2018-12-11T12:14:21.552Z,15.73
2018-12-11T12:16:49.009Z,21.77
2018-12-11T12:19:16.453Z,11.53
2018-12-11T12:21:43.889Z,17.63
2018-12-11T12:24:11.347Z,15.50
2018-12-11T12:26:38.942Z,15.97
2018-12-11T12:29:06.571Z,12.83
2018-12-11T12:31:34.088Z,9.13
2018-12-11T12:34:01.525Z,9.90
2018-12-11T12:36:28.975Z,14.67
2018-12-11T12:38:56.517Z,17.70
2018-12-11T12:41:24.021Z,11.50
2018-12-11T12:43:51.495Z,10.40
2018-12-11T12:46:19.665Z,9.50
2018-12-11T12:48:47.491Z,11.63
2018-12-11T12:51:14.956Z,13.47
2018-12-11T12:53:42.408Z,14.70
2018-12-11T12:56:09.846Z,11.27
2018-12-11T12:58:37.307Z,6.80
2018-12-11T13:01:04.845Z,10.80
2018-12-11T13:03:32.661Z,12.10
2018-12-11T13:06:00.097Z,10.73
2018-12-11T13:08:27.600Z,14.77
2018-12-11T13:10:55.095Z,9.43
2018-12-11T13:13:22.555Z,8.60
2018-12-11T13:15:50.456Z,8.10
2018-12-11T13:18:17.924Z,11.93
2018-12-11T13:20:45.477Z,10.67
2018-12-11T13:23:12.932Z,9.20
2018-12-11T13:25:40.423Z,10.80
2018-12-11T13:28:07.912Z,6.53
2018-12-11T13:30:35.386Z,6.67
2018-12-11T13:33:02.847Z,6.57
2018-12-11T13:35:30.356Z,12.70
2018-12-11T13:37:57.893Z,7.20
2018-12-11T13:40:25.458Z,16.80
2018-12-11T13:42:52.997Z,8.93
2018-12-11T13:45:20.463Z,14.03
2018-12-11T13:47:48.403Z,7.00
2018-12-11T13:50:15.991Z,12.13
2018-12-11T13:52:43.431Z,10.90
2018-12-11T13:55:10.965Z,14.27
2018-12-11T13:57:38.409Z,4.87
2018-12-11T14:00:07.287Z,11.40
2018-12-11T14:02:34.821Z,4.97
2018-12-11T14:05:02.683Z,6.87
2018-12-11T14:07:30.142Z,11.53
2018-12-11T14:09:57.616Z,10.30
2018-12-11T14:12:25.124Z,5.80
2018-12-11T14:14:52.610Z,4.33
2018-12-11T14:17:20.168Z,4.10
2018-12-11T14:19:48.329Z,8.87
2018-12-11T14:22:15.795Z,7.23
2018-12-11T14:24:43.353Z,2.80
2018-12-11T14:27:10.877Z,7.27
2018-12-11T14:29:38.531Z,8.03
2018-12-11T14:32:06.122Z,8.83
2018-12-11T14:34:33.577Z,4.43
2018-12-11T14:37:01.018Z,6.50
2018-12-11T14:39:28.523Z,5.73
2018-12-11T14:41:55.976Z,5.97
2018-12-11T14:44:23.570Z,6.50
2018-12-11T14:46:51.012Z,6.17
2018-12-11T14:49:18.452Z,4.50
2018-12-11T14:51:45.910Z,9.60
2018-12-11T14:54:13.375Z,7.97
2018-12-11T14:56:40.821Z,7.13
2018-12-11T14:59:08.276Z,7.23
2018-12-11T15:01:35.817Z,7.57
2018-12-11T15:04:03.348Z,6.20
2018-12-11T15:06:30.825Z,6.27
2018-12-11T15:09:00.281Z,6.43
2018-12-11T15:11:28.107Z,10.27
2018-12-11T15:13:55.664Z,4.47
2018-12-11T15:16:23.388Z,8.90
2018-12-11T15:18:50.862Z,2.97
2018-12-11T15:21:18.298Z,9.73
2018-12-11T15:23:45.759Z,8.27
2018-12-11T15:26:13.231Z,6.30
2018-12-11T15:28:40.773Z,5.47
2018-12-11T15:31:09.817Z,9.30
2018-12-11T15:33:37.275Z,3.77
2018-12-11T15:36:04.732Z,8.13
2018-12-11T15:38:32.209Z,5.63
2018-12-11T15:40:59.668Z,3.50
2018-12-11T15:43:27.186Z,5.27
2018-12-11T15:46:00.863Z,2.93
2018-12-11T15:48:24.115Z,11.53
2018-12-11T15:50:51.623Z,4.73
2018-12-11T15:53:19.080Z,5.63
2018-12-11T15:55:46.525Z,5.43
2018-12-11T15:58:13.997Z,9.23
2018-12-11T16:00:41.496Z,6.67
2018-12-11T16:03:09.326Z,5.80
2018-12-11T16:05:36.810Z,9.50
2018-12-11T16:08:04.420Z,3.57
2018-12-11T16:10:32.626Z,8.70
2018-12-11T16:13:00.054Z,7.93
2018-12-11T16:15:28.940Z,4.70
2018-12-11T16:17:58.637Z,7.43
2018-12-11T16:20:26.103Z,5.40
2018-12-11T16:22:53.661Z,9.27
2018-12-11T16:25:21.116Z,4.43
2018-12-11T16:27:48.648Z,4.63
2018-12-11T16:30:16.261Z,6.10
2018-12-11T16:32:43.746Z,3.40
2018-12-11T16:35:11.710Z,8.93
2018-12-11T16:37:39.650Z,10.77
2018-12-11T16:40:07.228Z,10.10
2018-12-11T16:42:34.701Z,8.63
2018-12-11T16:45:02.229Z,4.53
2018-12-11T16:47:29.769Z,5.47
2018-12-11T16:49:57.280Z,5.17
2018-12-11T16:52:24.739Z,4.40
2018-12-11T16:54:52.262Z,5.43
2018-12-11T16:57:19.753Z,5.07
2018-12-11T16:59:47.208Z,4.67
2018-12-11T17:02:14.650Z,7.53
2018-12-11T17:04:42.145Z,6.10
2018-12-11T17:07:09.677Z,3.13
2018-12-11T17:09:39.725Z,8.57
2018-12-11T17:12:07.642Z,6.33
2018-12-11T17:14:35.078Z,5.13
2018-12-11T17:17:02.569Z,5.47
2018-12-11T17:19:30.021Z,6.93
2018-12-11T17:21:57.495Z,6.73
2018-12-11T17:24:24.978Z,19.73
2018-12-11T17:26:53.001Z,5.30
2018-12-11T17:29:24.142Z,7.50
2018-12-11T17:31:49.924Z,7.17
2018-12-11T17:34:17.419Z,7.40
2018-12-11T17:36:44.891Z,3.30
2018-12-11T17:39:12.378Z,4.83
2018-12-11T17:41:39.884Z,8.33
2018-12-11T17:44:07.336Z,4.23
2018-12-11T17:46:34.786Z,8.73
2018-12-11T17:49:02.342Z,7.50
2018-12-11T17:51:29.975Z,6.77
2018-12-11T17:53:57.413Z,6.20
2018-12-11T17:56:24.947Z,8.33
2018-12-11T17:58:52.412Z,6.77
2018-12-11T18:01:21.221Z,8.37
2018-12-11T18:03:49.227Z,8.77
2018-12-11T18:06:16.669Z,7.20
2018-12-11T18:08:44.150Z,7.63
2018-12-11T18:11:11.617Z,8.00
2018-12-11T18:13:39.073Z,6.53
2018-12-11T18:16:06.561Z,4.70
2018-12-11T18:18:34.049Z,6.33
2018-12-11T18:21:01.537Z,7.50
2018-12-11T18:23:28.988Z,7.60
2018-12-11T18:25:56.467Z,4.73
2018-12-11T18:28:23.929Z,8.57
2018-12-11T18:30:51.473Z,6.23
2018-12-11T18:33:18.929Z,7.20
2018-12-11T18:35:46.380Z,9.27
2018-12-11T18:38:13.841Z,7.17
2018-12-11T18:40:44.275Z,7.60
2018-12-11T18:43:11.839Z,10.60
2018-12-11T18:45:39.357Z,7.30
2018-12-11T18:48:06.848Z,9.37
2018-12-11T18:50:34.359Z,8.03
2018-12-11T18:53:01.827Z,10.43
2018-12-11T18:55:29.261Z,5.57
2018-12-11T18:57:56.709Z,6.50
2018-12-11T19:00:24.148Z,7.60
2018-12-11T19:02:51.589Z,9.90
2018-12-11T19:05:19.101Z,7.40
2018-12-11T19:07:46.609Z,7.00
2018-12-11T19:10:14.131Z,7.50
2018-12-11T19:12:41.592Z,10.07
2018-12-11T19:15:09.104Z,11.47
2018-12-11T19:17:36.761Z,7.50
2018-12-11T19:20:05.758Z,10.30
2018-12-11T19:22:33.233Z,6.97
2018-12-11T19:25:00.689Z,5.10
2018-12-11T19:27:28.195Z,10.63
2018-12-11T19:29:55.692Z,11.47
2018-12-11T19:32:23.144Z,13.20
2018-12-11T19:34:50.801Z,7.83
2018-12-11T19:37:18.842Z,10.73
2018-12-11T19:39:46.433Z,8.93
2018-12-11T19:42:13.899Z,8.13
2018-12-11T19:44:41.369Z,12.93
2018-12-11T19:47:08.814Z,5.63
2018-12-11T19:49:36.295Z,6.33
2018-12-11T19:52:03.923Z,6.93
2018-12-11T19:54:31.374Z,6.33
2018-12-11T19:56:58.905Z,11.63
2018-12-11T19:59:26.382Z,7.43
2018-12-11T20:01:54.480Z,7.30
2018-12-11T20:04:21.937Z,6.03
2018-12-11T20:06:49.478Z,6.13
2018-12-11T20:09:16.955Z,7.57
2018-12-11T20:11:44.417Z,6.80
2018-12-11T20:14:11.877Z,5.90
2018-12-11T20:16:39.341Z,9.87
2018-12-11T20:19:06.857Z,7.70
2018-12-11T20:21:34.348Z,8.00
2018-12-11T20:24:04.882Z,7.20
2018-12-11T20:26:31.372Z,8.70
2018-12-11T20:28:58.847Z,6.80
2018-12-11T20:31:26.373Z,5.30
2018-12-11T20:33:54.938Z,8.00
2018-12-11T20:36:22.459Z,6.97
2018-12-11T20:38:49.962Z,4.70
2018-12-11T20:41:17.437Z,8.43
2018-12-11T20:43:45.083Z,8.53
2018-12-11T20:46:12.545Z,7.77
2018-12-11T20:48:40.251Z,11.90
2018-12-11T20:51:07.852Z,6.33
2018-12-11T20:53:35.355Z,7.17
2018-12-11T20:56:02.992Z,11.07
2018-12-11T20:58:30.437Z,9.17
2018-12-11T21:00:57.881Z,10.20
2018-12-11T21:03:25.360Z,6.17
2018-12-11T21:05:52.818Z,9.53
2018-12-11T21:08:20.398Z,5.33
2018-12-11T21:10:47.833Z,8.63
2018-12-11T21:13:15.278Z,8.30
2018-12-11T21:15:42.934Z,4.93
2018-12-11T21:18:10.437Z,7.57
2018-12-11T21:20:38.042Z,6.70
2018-12-11T21:23:05.648Z,7.80
2018-12-11T21:25:33.099Z,5.67
2018-12-11T21:28:00.559Z,9.77
2018-12-11T21:30:28.887Z,7.87
2018-12-11T21:32:56.436Z,8.50
2018-12-11T21:35:23.965Z,6.83
2018-12-11T21:37:52.544Z,8.30
2018-12-11T21:40:20.024Z,8.43
2018-12-11T21:42:47.461Z,9.07
2018-12-11T21:45:14.917Z,7.97
2018-12-11T21:47:42.435Z,12.53
2018-12-11T21:50:09.968Z,11.17
2018-12-11T21:52:37.426Z,5.93
2018-12-11T21:55:06.530Z,8.07
2018-12-11T21:57:40.972Z,6.27
2018-12-11T22:00:09.458Z,7.73
2018-12-11T22:02:36.914Z,5.50
2018-12-11T22:05:05.290Z,5.63
2018-12-11T22:07:34.244Z,6.87
2018-12-11T22:10:02.310Z,7.63
2018-12-11T22:12:35.837Z,7.27
2018-12-11T22:15:03.867Z,8.33
2018-12-11T22:17:31.387Z,9.13
2018-12-11T22:19:58.976Z,8.50
2018-12-11T22:22:26.638Z,10.10
2018-12-11T22:24:54.133Z,5.60
2018-12-11T22:27:21.603Z,8.20
2018-12-11T22:29:49.757Z,7.43
2018-12-11T22:32:17.236Z,8.00
2018-12-11T22:34:44.699Z,7.10
2018-12-11T22:37:12.786Z,12.00
2018-12-11T22:39:40.244Z,6.13
2018-12-11T22:42:07.724Z,10.40
2018-12-11T22:44:35.184Z,8.40
2018-12-11T22:47:02.703Z,8.43
2018-12-11T22:49:30.344Z,7.20
2018-12-11T22:51:57.864Z,6.20
2018-12-11T22:54:26.457Z,11.87
2018-12-11T22:56:53.923Z,13.53
2018-12-11T22:59:21.419Z,14.00
2018-12-11T23:01:48.924Z,7.90
2018-12-11T23:04:16.395Z,18.70
2018-12-11T23:06:44.108Z,9.80
2018-12-11T23:09:11.713Z,14.53
2018-12-11T23:11:39.192Z,10.33
2018-12-11T23:14:06.703Z,10.33
2018-12-11T23:16:34.824Z,13.43
2018-12-11T23:19:02.383Z,9.20
2018-12-11T23:21:29.847Z,9.07
2018-12-11T23:23:57.367Z,12.30
2018-12-11T23:26:24.945Z,7.60
2018-12-11T23:28:52.493Z,10.00
2018-12-11T23:31:19.940Z,6.47
2018-12-11T23:33:47.532Z,12.20
2018-12-11T23:36:15.010Z,11.07
2018-12-11T23:38:42.579Z,6.93
2018-12-11T23:41:10.024Z,8.60
2018-12-11T23:43:38.468Z,12.73
2018-12-11T23:46:06.857Z,7.87
2018-12-11T23:48:34.399Z,11.63
2018-12-11T23:51:02.509Z,8.83
2018-12-11T23:53:29.991Z,10.07
2018-12-11T23:55:57.590Z,9.03
2018-12-11T23:58:25.027Z,9.53
